createdAt,value
2023-05-12T00:01:53.325Z,84.08
2023-05-12T00:04:19.925Z,84.33
2023-05-12T00:06:46.617Z,84.92
2023-05-12T00:09:13.245Z,84.64
2023-05-12T00:11:40.001Z,83.57
2023-05-12T00:14:06.766Z,84.49
2023-05-12T00:16:33.486Z,83.60
2023-05-12T00:19:00.633Z,83.63
2023-05-12T00:21:27.356Z,84.09
2023-05-12T00:23:54.031Z,83.29
2023-05-12T00:26:20.998Z,83.28
2023-05-12T00:28:48.750Z,85.37
2023-05-12T00:31:15.899Z,84.55
2023-05-12T00:33:42.774Z,84.51
2023-05-12T00:36:09.574Z,83.14
2023-05-12T00:38:37.501Z,84.22
2023-05-12T00:41:04.750Z,84.78
2023-05-12T00:43:32.069Z,83.70
2023-05-12T00:45:58.788Z,84.85
2023-05-12T00:48:25.772Z,85.35
2023-05-12T00:50:52.462Z,85.20
2023-05-12T00:53:19.147Z,83.93
2023-05-12T00:55:45.901Z,84.15
2023-05-12T00:58:12.558Z,84.48
2023-05-12T01:00:39.325Z,84.61
2023-05-12T01:03:06.237Z,85.57
2023-05-12T01:05:58.685Z,85.76
2023-05-12T01:08:25.303Z,85.06
2023-05-12T01:10:52.263Z,85.98
2023-05-12T01:13:18.946Z,87.21
2023-05-12T01:15:47.323Z,86.59
2023-05-12T01:18:15.740Z,85.87
2023-05-12T01:20:42.937Z,86.42
2023-05-12T01:23:09.795Z,85.07
2023-05-12T01:25:36.704Z,86.60
2023-05-12T01:28:03.726Z,87.27
2023-05-12T01:30:30.369Z,87.03
2023-05-12T01:32:57.111Z,86.08
2023-05-12T01:35:23.822Z,87.75
2023-05-12T01:37:50.543Z,87.45
2023-05-12T01:40:18.170Z,85.99
2023-05-12T01:42:45.027Z,86.51
2023-05-12T01:45:11.883Z,87.65
2023-05-12T01:47:38.619Z,88.80
2023-05-12T01:50:05.741Z,88.13
2023-05-12T01:52:32.806Z,86.93
2023-05-12T01:54:59.790Z,87.45
2023-05-12T01:57:26.438Z,86.32
2023-05-12T01:59:53.107Z,86.49
2023-05-12T02:02:19.684Z,86.27
2023-05-12T02:04:46.345Z,86.03
2023-05-12T02:07:12.945Z,84.88
2023-05-12T02:09:39.656Z,86.19
2023-05-12T02:12:06.805Z,88.08
2023-05-12T02:14:33.594Z,86.57
2023-05-12T02:17:00.268Z,86.32
2023-05-12T02:19:26.887Z,86.67
2023-05-12T02:21:53.605Z,87.25
2023-05-12T02:24:21.318Z,87.60
2023-05-12T02:26:48.103Z,86.96
2023-05-12T02:29:14.691Z,86.50
2023-05-12T02:31:41.471Z,87.31
2023-05-12T02:34:08.110Z,88.17
2023-05-12T02:36:34.812Z,87.08
2023-05-12T02:39:01.585Z,86.63
2023-05-12T02:41:28.298Z,86.63
2023-05-12T02:43:55.078Z,86.81
2023-05-12T02:46:21.768Z,86.18
2023-05-12T02:48:48.451Z,89.10
2023-05-12T02:51:15.198Z,87.21
2023-05-12T02:53:41.909Z,89.21
2023-05-12T02:56:08.610Z,90.29
2023-05-12T02:58:35.317Z,89.96
2023-05-12T03:01:10.180Z,87.43
2023-05-12T03:03:38.465Z,87.17
2023-05-12T03:06:06.277Z,87.29
2023-05-12T03:08:33.159Z,87.49
2023-05-12T03:10:59.853Z,88.67
2023-05-12T03:13:26.532Z,89.64
2023-05-12T03:15:53.340Z,87.85
2023-05-12T03:18:20.118Z,88.00
2023-05-12T03:20:46.974Z,88.45
2023-05-12T03:23:13.727Z,87.95
2023-05-12T03:25:40.409Z,87.76
2023-05-12T03:28:07.144Z,87.67
2023-05-12T03:30:33.827Z,87.10
2023-05-12T03:33:00.541Z,86.47
2023-05-12T03:35:27.322Z,86.88
2023-05-12T03:37:54.095Z,86.20
2023-05-12T03:40:21.007Z,87.23
2023-05-12T03:42:48.108Z,87.62
2023-05-12T03:45:16.545Z,86.94
2023-05-12T03:47:43.322Z,86.51
2023-05-12T03:50:10.449Z,87.86
2023-05-12T03:52:38.651Z,88.03
2023-05-12T03:55:06.938Z,87.53
2023-05-12T03:57:34.527Z,88.30
2023-05-12T04:00:01.494Z,88.25
2023-05-12T04:02:28.201Z,88.03
2023-05-12T04:04:55.050Z,87.74
2023-05-12T04:07:21.778Z,89.01
2023-05-12T04:09:48.468Z,89.06
2023-05-12T04:12:15.093Z,88.56
2023-05-12T04:14:43.460Z,87.78
2023-05-12T04:17:10.671Z,87.86
2023-05-12T04:19:37.421Z,87.08
2023-05-12T04:22:04.299Z,87.95
2023-05-12T04:24:31.310Z,89.04
2023-05-12T04:26:58.106Z,88.98
2023-05-12T04:29:24.778Z,88.73
2023-05-12T04:31:51.453Z,88.45
2023-05-12T04:34:18.120Z,88.39
2023-05-12T04:36:44.793Z,89.01
2023-05-12T04:39:11.544Z,89.53
2023-05-12T04:41:38.207Z,89.46
2023-05-12T04:44:05.245Z,88.87
2023-05-12T04:46:31.926Z,88.80
2023-05-12T04:48:58.661Z,88.93
2023-05-12T04:51:25.374Z,90.28
2023-05-12T04:53:52.084Z,89.13
2023-05-12T04:56:18.679Z,88.52
2023-05-12T04:58:45.353Z,88.50
2023-05-12T05:01:13.798Z,89.23
2023-05-12T05:03:40.938Z,89.24
2023-05-12T05:06:07.828Z,88.56
2023-05-12T05:08:34.691Z,88.68
2023-05-12T05:11:01.399Z,88.16
2023-05-12T05:13:28.067Z,87.65
2023-05-12T05:15:55.616Z,87.40
2023-05-12T05:18:24.211Z,87.36
2023-05-12T05:20:57.831Z,87.93
2023-05-12T05:23:26.045Z,88.95
2023-05-12T05:25:53.019Z,89.25
2023-05-12T05:28:19.622Z,88.54
2023-05-12T05:30:46.206Z,89.21
2023-05-12T05:33:13.369Z,89.55
2023-05-12T05:35:40.204Z,89.05
2023-05-12T05:38:06.812Z,89.29
2023-05-12T05:40:41.553Z,89.08
2023-05-12T05:43:18.714Z,89.59
2023-05-12T05:45:45.575Z,89.59
2023-05-12T05:48:12.277Z,89.97
2023-05-12T05:50:39.027Z,90.35
2023-05-12T05:53:06.683Z,90.23
2023-05-12T05:55:33.263Z,91.31
2023-05-12T05:58:00.055Z,91.89
2023-05-12T06:00:26.819Z,91.95
2023-05-12T06:02:53.648Z,91.79
2023-05-12T06:05:20.683Z,92.16
2023-05-12T06:07:47.662Z,90.75
2023-05-12T06:10:14.212Z,91.19
2023-05-12T06:12:41.234Z,91.24
2023-05-12T06:15:08.625Z,90.42
2023-05-12T06:17:35.366Z,90.10
2023-05-12T06:20:02.747Z,89.96
2023-05-12T06:22:29.356Z,90.32
2023-05-12T06:24:55.967Z,89.73
2023-05-12T06:27:22.891Z,89.80
2023-05-12T06:29:49.620Z,89.48
2023-05-12T06:32:16.355Z,89.44
2023-05-12T06:34:43.089Z,88.17
2023-05-12T06:37:09.708Z,88.51
2023-05-12T06:39:36.302Z,88.27
2023-05-12T06:42:03.006Z,88.90
2023-05-12T06:44:29.673Z,87.79
2023-05-12T06:46:56.702Z,88.32
2023-05-12T06:49:23.617Z,87.83
2023-05-12T06:51:50.248Z,87.60
2023-05-12T06:54:16.915Z,88.18
2023-05-12T06:56:43.855Z,87.57
2023-05-12T06:59:11.116Z,87.37
2023-05-12T07:01:37.979Z,87.46
2023-05-12T07:04:04.966Z,86.51
2023-05-12T07:06:32.394Z,87.34
2023-05-12T07:08:59.075Z,87.16
2023-05-12T07:11:25.849Z,87.70
2023-05-12T07:13:52.709Z,87.56
2023-05-12T07:16:19.602Z,86.59
2023-05-12T07:18:46.432Z,87.06
2023-05-12T07:21:13.424Z,87.38
2023-05-12T07:23:40.602Z,86.38
2023-05-12T07:26:07.434Z,87.49
2023-05-12T07:28:38.077Z,87.13
2023-05-12T07:31:05.825Z,87.93
2023-05-12T07:33:32.678Z,87.29
2023-05-12T07:35:59.383Z,86.57
2023-05-12T07:38:26.010Z,86.61
2023-05-12T07:40:53.008Z,87.71
2023-05-12T07:43:19.648Z,88.32
2023-05-12T07:45:46.723Z,87.95
2023-05-12T07:48:13.568Z,87.02
2023-05-12T07:50:40.303Z,85.96
2023-05-12T07:53:07.009Z,86.49
2023-05-12T07:55:34.053Z,86.95
2023-05-12T07:58:01.074Z,86.60
2023-05-12T08:00:27.796Z,86.05
2023-05-12T08:02:55.084Z,85.55
2023-05-12T08:05:22.319Z,84.87
2023-05-12T08:07:49.151Z,85.26
2023-05-12T08:10:15.840Z,86.11
2023-05-12T08:12:42.669Z,84.89
2023-05-12T08:15:09.661Z,85.26
2023-05-12T08:17:36.493Z,85.08
2023-05-12T08:20:06.709Z,84.70
2023-05-12T08:22:33.578Z,85.79
2023-05-12T08:25:00.364Z,85.09
2023-05-12T08:27:27.173Z,84.17
2023-05-12T08:29:53.884Z,83.98
2023-05-12T08:32:20.524Z,84.46
2023-05-12T08:34:47.204Z,83.33
2023-05-12T08:37:14.219Z,83.38
2023-05-12T08:39:40.946Z,84.30
2023-05-12T08:42:31.768Z,83.71
2023-05-12T08:44:59.589Z,83.39
2023-05-12T08:47:26.275Z,83.28
2023-05-12T08:50:03.471Z,83.45
2023-05-12T08:52:34.204Z,83.64
2023-05-12T08:55:02.457Z,82.96
2023-05-12T08:57:30.108Z,83.55
2023-05-12T08:59:57.245Z,83.38
2023-05-12T09:02:24.728Z,82.81
2023-05-12T09:04:52.153Z,82.94
2023-05-12T09:07:19.142Z,82.27
2023-05-12T09:09:47.333Z,83.34
2023-05-12T09:12:16.931Z,82.60
2023-05-12T09:14:44.897Z,82.32
2023-05-12T09:17:12.676Z,81.84
2023-05-12T09:19:39.327Z,82.72
2023-05-12T09:22:05.970Z,82.59
2023-05-12T09:24:38.753Z,81.55
2023-05-12T09:27:05.761Z,82.05
2023-05-12T09:29:42.517Z,82.79
2023-05-12T09:32:14.801Z,82.25
2023-05-12T09:34:41.736Z,81.22
2023-05-12T09:37:08.771Z,81.33
2023-05-12T09:39:36.410Z,81.95
2023-05-12T09:42:03.118Z,82.40
2023-05-12T09:44:29.823Z,81.72
2023-05-12T09:46:56.515Z,81.19
2023-05-12T09:49:26.377Z,81.28
2023-05-12T09:51:54.129Z,82.04
2023-05-12T09:54:31.017Z,81.46
2023-05-12T09:56:58.703Z,81.63
2023-05-12T09:59:28.371Z,82.46
2023-05-12T10:01:55.104Z,82.44
2023-05-12T10:04:21.772Z,81.82
2023-05-12T10:06:48.443Z,81.62
2023-05-12T10:09:29.342Z,81.21
2023-05-12T10:11:56.580Z,79.96
2023-05-12T10:14:23.256Z,80.89
2023-05-12T10:16:50.317Z,81.01
2023-05-12T10:19:17.566Z,80.93
2023-05-12T10:21:47.076Z,80.00
2023-05-12T10:24:17.044Z,80.27
2023-05-12T10:26:44.732Z,79.92
2023-05-12T10:29:11.886Z,79.68
2023-05-12T10:31:38.720Z,80.55
2023-05-12T10:34:06.810Z,79.32
2023-05-12T10:36:45.908Z,79.15
2023-05-12T10:39:14.794Z,80.30
2023-05-12T10:41:41.582Z,79.96
2023-05-12T10:44:09.181Z,79.82
2023-05-12T10:46:36.006Z,78.92
2023-05-12T10:49:07.896Z,79.89
2023-05-12T10:51:35.636Z,80.00
2023-05-12T10:54:06.536Z,78.87
2023-05-12T10:56:42.524Z,79.31
2023-05-12T10:59:14.086Z,79.26
2023-05-12T11:01:41.902Z,78.83
2023-05-12T11:04:13.849Z,78.24
2023-05-12T11:06:41.186Z,78.77
2023-05-12T11:09:09.075Z,78.33
2023-05-12T11:11:36.409Z,78.47
2023-05-12T11:14:03.295Z,78.43
2023-05-12T11:16:29.945Z,78.75
2023-05-12T11:19:05.962Z,77.61
2023-05-12T11:21:33.140Z,77.38
2023-05-12T11:24:00.689Z,77.21
2023-05-12T11:26:27.883Z,77.10
2023-05-12T11:28:54.991Z,76.39
2023-05-12T11:31:22.187Z,76.22
2023-05-12T11:33:55.926Z,76.79
2023-05-12T11:36:28.074Z,75.93
2023-05-12T11:38:54.811Z,75.59
2023-05-12T11:41:25.086Z,75.54
2023-05-12T11:43:52.388Z,75.73
2023-05-12T11:46:26.750Z,74.65
2023-05-12T11:48:57.530Z,75.41
2023-05-12T11:51:24.702Z,75.25
2023-05-12T11:53:54.559Z,75.71
2023-05-12T11:56:22.069Z,74.04
2023-05-12T11:58:55.999Z,73.15
2023-05-12T12:01:23.554Z,73.58
2023-05-12T12:03:51.768Z,73.52
2023-05-12T12:06:19.187Z,73.26
2023-05-12T12:08:52.269Z,73.45
2023-05-12T12:11:19.729Z,72.56
2023-05-12T12:13:56.333Z,73.61
2023-05-12T12:16:32.338Z,74.08
2023-05-12T12:18:59.151Z,72.49
2023-05-12T12:21:25.937Z,71.92
2023-05-12T12:23:52.625Z,71.02
2023-05-12T12:26:21.034Z,71.97
2023-05-12T12:28:47.889Z,72.20
2023-05-12T12:31:14.776Z,71.47
2023-05-12T12:33:41.593Z,71.67
2023-05-12T12:36:08.495Z,71.76
2023-05-12T12:38:35.253Z,70.70
2023-05-12T12:41:01.932Z,71.04
2023-05-12T12:43:28.889Z,70.93
2023-05-12T12:45:55.613Z,71.34
2023-05-12T12:48:22.287Z,71.27
2023-05-12T12:50:48.972Z,72.34
2023-05-12T12:53:16.762Z,71.31
2023-05-12T12:55:43.577Z,70.18
2023-05-12T12:58:10.271Z,70.92
2023-05-12T13:00:37.000Z,71.36
2023-05-12T13:03:04.128Z,70.72
2023-05-12T13:05:30.864Z,70.28
2023-05-12T13:07:57.735Z,71.04
2023-05-12T13:10:25.512Z,70.25
2023-05-12T13:12:52.529Z,70.79
2023-05-12T13:15:19.662Z,70.17
2023-05-12T13:17:46.623Z,70.57
2023-05-12T13:20:14.211Z,70.42
2023-05-12T13:22:41.766Z,70.06
2023-05-12T13:25:08.893Z,69.31
2023-05-12T13:27:36.122Z,70.54
2023-05-12T13:30:04.951Z,69.19
2023-05-12T13:32:31.918Z,68.82
2023-05-12T13:34:59.107Z,70.15
2023-05-12T13:37:25.778Z,69.54
2023-05-12T13:39:52.504Z,69.64
2023-05-12T13:42:19.388Z,70.81
2023-05-12T13:44:46.081Z,69.95
2023-05-12T13:47:12.876Z,69.81
2023-05-12T13:49:39.510Z,69.23
2023-05-12T13:52:06.665Z,69.80
2023-05-12T13:54:33.464Z,70.45
2023-05-12T13:57:04.071Z,70.09
2023-05-12T13:59:31.156Z,70.17
2023-05-12T14:01:58.496Z,69.47
2023-05-12T14:04:25.449Z,68.85
2023-05-12T14:06:52.139Z,69.42
2023-05-12T14:09:19.442Z,68.90
2023-05-12T14:11:46.283Z,69.44
2023-05-12T14:14:13.200Z,69.34
2023-05-12T14:16:39.943Z,68.07
2023-05-12T14:19:06.699Z,67.93
2023-05-12T14:21:33.384Z,69.04
2023-05-12T14:24:00.146Z,66.87
2023-05-12T14:26:26.768Z,67.22
2023-05-12T14:28:53.507Z,66.19
2023-05-12T14:31:20.324Z,64.97
2023-05-12T14:33:47.128Z,64.67
2023-05-12T14:36:13.741Z,65.00
2023-05-12T14:38:40.374Z,64.74
2023-05-12T14:41:08.533Z,64.82
2023-05-12T14:43:35.291Z,65.37
2023-05-12T14:46:02.344Z,64.02
2023-05-12T14:48:29.061Z,64.08
2023-05-12T14:50:56.313Z,62.55
2023-05-12T14:53:23.160Z,60.05
2023-05-12T14:55:49.984Z,61.42
2023-05-12T14:58:17.784Z,61.86
2023-05-12T15:00:45.129Z,62.47
2023-05-12T15:03:12.139Z,62.64
2023-05-12T15:05:56.902Z,62.05
2023-05-12T15:08:25.567Z,62.33
2023-05-12T15:10:52.300Z,61.58
2023-05-12T15:13:20.497Z,61.51
2023-05-12T15:15:47.248Z,63.13
2023-05-12T15:18:13.929Z,63.06
2023-05-12T15:20:40.820Z,62.61
2023-05-12T15:23:07.514Z,61.64
2023-05-12T15:25:34.296Z,62.45
2023-05-12T15:28:01.207Z,63.12
2023-05-12T15:30:27.794Z,61.85
2023-05-12T15:32:54.436Z,63.25
2023-05-12T15:35:21.568Z,63.22
2023-05-12T15:37:48.453Z,62.85
2023-05-12T15:40:15.230Z,62.63
2023-05-12T15:42:41.973Z,61.95
2023-05-12T15:45:09.736Z,60.94
2023-05-12T15:47:36.611Z,60.65
2023-05-12T15:50:04.129Z,61.60
2023-05-12T15:52:30.748Z,60.74
2023-05-12T15:54:57.565Z,60.59
2023-05-12T15:57:24.261Z,60.10
2023-05-12T15:59:56.062Z,59.27
2023-05-12T16:02:22.641Z,58.75
2023-05-12T16:04:49.344Z,57.05
2023-05-12T16:07:15.985Z,57.82
2023-05-12T16:09:42.706Z,57.97
2023-05-12T16:12:11.432Z,57.12
2023-05-12T16:14:38.134Z,59.20
2023-05-12T16:17:05.040Z,59.09
2023-05-12T16:19:31.870Z,58.76
2023-05-12T16:21:59.480Z,57.89
2023-05-12T16:24:28.585Z,57.30
2023-05-12T16:26:59.420Z,58.08
2023-05-12T16:29:26.257Z,57.26
2023-05-12T16:31:53.561Z,58.18
2023-05-12T16:34:20.198Z,57.56
2023-05-12T16:36:46.891Z,56.90
2023-05-12T16:39:13.824Z,57.55
2023-05-12T16:41:41.000Z,58.50
2023-05-12T16:44:07.571Z,58.82
2023-05-12T16:46:34.502Z,58.35
2023-05-12T16:49:01.664Z,58.49
2023-05-12T16:51:32.071Z,60.07
2023-05-12T16:53:58.870Z,60.07
2023-05-12T16:56:25.966Z,60.76
2023-05-12T16:58:52.644Z,60.84
2023-05-12T17:01:19.266Z,62.18
2023-05-12T17:03:46.154Z,63.04
2023-05-12T17:06:13.176Z,61.07
2023-05-12T17:08:39.943Z,62.89
2023-05-12T17:11:06.799Z,64.16
2023-05-12T17:13:36.007Z,62.93
2023-05-12T17:16:02.833Z,64.47
2023-05-12T17:18:29.533Z,64.24
2023-05-12T17:20:56.228Z,65.24
2023-05-12T17:23:22.888Z,66.80
2023-05-12T17:25:49.701Z,65.65
2023-05-12T17:28:16.318Z,65.87
2023-05-12T17:30:43.184Z,65.86
2023-05-12T17:33:09.973Z,66.49
2023-05-12T17:35:36.752Z,65.76
2023-05-12T17:38:03.429Z,66.63
2023-05-12T17:40:30.256Z,67.20
2023-05-12T17:42:56.923Z,67.58
2023-05-12T17:45:24.155Z,67.54
2023-05-12T17:47:51.319Z,69.63
2023-05-12T17:50:18.270Z,68.00
2023-05-12T17:52:45.047Z,67.59
2023-05-12T17:55:11.892Z,67.87
2023-05-12T17:57:38.638Z,68.81
2023-05-12T18:00:10.495Z,70.09
2023-05-12T18:02:38.254Z,69.37
2023-05-12T18:05:05.911Z,69.55
2023-05-12T18:07:32.912Z,70.14
2023-05-12T18:09:59.614Z,69.72
2023-05-12T18:12:26.493Z,70.67
2023-05-12T18:14:53.224Z,69.72
2023-05-12T18:17:20.034Z,70.91
2023-05-12T18:19:46.751Z,73.61
2023-05-12T18:22:14.581Z,77.85
2023-05-12T18:24:41.306Z,76.73
2023-05-12T18:27:07.902Z,78.21
2023-05-12T18:29:34.534Z,77.21
2023-05-12T18:32:01.235Z,76.76
2023-05-12T18:34:27.932Z,79.80
2023-05-12T18:36:54.585Z,80.09
2023-05-12T18:39:21.210Z,81.24
2023-05-12T18:41:47.837Z,81.13
2023-05-12T18:44:14.567Z,82.53
2023-05-12T18:46:41.287Z,82.73
2023-05-12T18:49:07.967Z,83.18
2023-05-12T18:51:34.782Z,82.88
2023-05-12T18:54:01.459Z,82.39
2023-05-12T18:56:28.026Z,81.11
2023-05-12T18:58:54.665Z,83.17
2023-05-12T19:01:21.402Z,82.88
2023-05-12T19:03:48.617Z,82.40
2023-05-12T19:06:15.436Z,85.94
2023-05-12T19:08:42.116Z,83.82
2023-05-12T19:11:08.756Z,81.10
2023-05-12T19:13:40.620Z,79.70
2023-05-12T19:16:07.340Z,79.88
2023-05-12T19:18:34.059Z,80.58
2023-05-12T19:21:01.993Z,81.09
2023-05-12T19:23:30.621Z,82.00
2023-05-12T19:25:57.285Z,80.85
2023-05-12T19:28:24.138Z,80.25
2023-05-12T19:30:50.841Z,82.69
2023-05-12T19:33:17.584Z,81.75
2023-05-12T19:35:44.341Z,80.22
2023-05-12T19:38:10.960Z,80.54
2023-05-12T19:40:37.653Z,81.73
2023-05-12T19:43:05.242Z,79.31
2023-05-12T19:45:31.896Z,79.33
2023-05-12T19:47:59.158Z,80.72
2023-05-12T19:50:25.846Z,81.82
2023-05-12T19:52:52.525Z,80.50
2023-05-12T19:55:19.844Z,81.53
2023-05-12T19:57:46.624Z,80.34
2023-05-12T20:00:13.731Z,79.87
2023-05-12T20:02:40.815Z,80.68
2023-05-12T20:05:07.919Z,79.33
2023-05-12T20:07:34.684Z,80.23
2023-05-12T20:10:01.413Z,81.04
2023-05-12T20:12:28.022Z,80.68
2023-05-12T20:14:54.696Z,81.08
2023-05-12T20:17:21.463Z,81.42
2023-05-12T20:19:48.212Z,80.36
2023-05-12T20:22:14.846Z,82.36
2023-05-12T20:24:41.504Z,80.99
2023-05-12T20:27:08.357Z,79.99
2023-05-12T20:29:35.094Z,80.42
2023-05-12T20:32:01.693Z,81.31
2023-05-12T20:34:28.399Z,81.80
2023-05-12T20:36:55.147Z,80.66
2023-05-12T20:39:21.792Z,81.35
2023-05-12T20:41:48.448Z,80.22
2023-05-12T20:44:15.092Z,80.12
2023-05-12T20:46:41.824Z,80.00
2023-05-12T20:49:08.672Z,78.68
2023-05-12T20:51:35.541Z,77.94
2023-05-12T20:54:02.265Z,77.38
2023-05-12T20:56:29.066Z,75.97
2023-05-12T20:58:57.348Z,77.25
2023-05-12T21:01:24.040Z,76.94
2023-05-12T21:03:50.781Z,76.31
2023-05-12T21:06:17.412Z,76.45
2023-05-12T21:08:44.349Z,76.01
2023-05-12T21:11:15.625Z,75.69
2023-05-12T21:13:42.938Z,75.46
2023-05-12T21:16:09.614Z,75.25
2023-05-12T21:18:36.299Z,75.53
2023-05-12T21:21:03.125Z,75.08
2023-05-12T21:23:29.844Z,75.91
2023-05-12T21:25:56.543Z,75.67
2023-05-12T21:28:23.223Z,76.46
2023-05-12T21:30:49.878Z,76.80
2023-05-12T21:33:16.616Z,77.28
2023-05-12T21:35:43.312Z,76.74
2023-05-12T21:38:10.162Z,76.96
2023-05-12T21:40:37.888Z,76.62
2023-05-12T21:43:04.531Z,74.28
2023-05-12T21:45:31.156Z,73.51
2023-05-12T21:47:57.828Z,70.64
2023-05-12T21:50:24.447Z,71.13
2023-05-12T21:52:51.283Z,71.71
2023-05-12T21:55:17.912Z,72.82
2023-05-12T21:57:44.831Z,73.89
2023-05-12T22:00:12.966Z,73.87
2023-05-12T22:02:39.950Z,74.50
2023-05-12T22:05:07.934Z,71.41
2023-05-12T22:07:34.722Z,70.35
2023-05-12T22:10:01.469Z,71.00
2023-05-12T22:12:28.146Z,70.70
2023-05-12T22:14:54.876Z,69.76
2023-05-12T22:17:21.635Z,70.10
2023-05-12T22:19:48.438Z,70.59
2023-05-12T22:22:15.034Z,69.39
2023-05-12T22:24:41.659Z,69.16
2023-05-12T22:27:08.297Z,67.38
2023-05-12T22:29:34.946Z,67.05
2023-05-12T22:32:01.626Z,67.80
2023-05-12T22:34:28.197Z,67.93
2023-05-12T22:36:54.912Z,67.19
2023-05-12T22:39:21.556Z,67.97
2023-05-12T22:41:48.224Z,67.46
2023-05-12T22:44:14.855Z,67.28
2023-05-12T22:46:41.530Z,67.62
2023-05-12T22:49:08.216Z,67.42
2023-05-12T22:51:34.846Z,67.98
2023-05-12T22:54:01.473Z,67.87
2023-05-12T22:56:28.165Z,67.18
2023-05-12T22:58:54.861Z,67.06
2023-05-12T23:01:21.498Z,68.44
2023-05-12T23:03:48.192Z,67.72
2023-05-12T23:06:14.829Z,67.72
2023-05-12T23:08:41.487Z,67.77
2023-05-12T23:11:09.632Z,67.72
2023-05-12T23:13:36.356Z,69.10
2023-05-12T23:16:03.269Z,68.27
2023-05-12T23:18:29.865Z,69.60
2023-05-12T23:20:56.648Z,68.85
2023-05-12T23:23:23.332Z,67.84
2023-05-12T23:25:50.061Z,68.84
2023-05-12T23:28:16.660Z,66.75
2023-05-12T23:30:43.424Z,65.06
2023-05-12T23:33:10.285Z,65.74
2023-05-12T23:35:37.236Z,66.80
2023-05-12T23:38:03.908Z,67.34
2023-05-12T23:40:33.312Z,67.52
2023-05-12T23:42:59.998Z,66.53
2023-05-12T23:45:26.681Z,66.38
2023-05-12T23:47:53.341Z,64.69
2023-05-12T23:50:21.809Z,66.88
2023-05-12T23:52:48.781Z,66.74
2023-05-12T23:55:15.630Z,68.62
2023-05-12T23:57:42.425Z,67.08
